Airfield :
LOGIN :

Register | Disclaimer

   EN    FR    IT 

 










Legend :    VFR   Marginal VFR   IFR   Intensive IFR   Very Intensive IFR
Visi :
Ceiling :
>= 8 km
>= 3000ft
5 to 8 km
1000 to 3000 ft
1500m to 5 km
500 to 1000 ft
800 to 1500m
200 to 500 ft
< 800m
< 200 ft
Symbols :   Thunderstorms  Fog  Heavy snow  Heavy precipitations  Wind > 20 kt
SIGMETs :     Misc.  Thunderstorms  Icing  Turbulence  Mountain Waves  Volcanic Ashes






- Airport Elevation : 1947 ft
- IATA code : OBF


EDMO - Oberpfaffenhofen

CURRENT METAR :
  • 031350Z VRB04KT 9999 SCT048 22/12 Q1014

EXPIRED METARs :
  • 031320Z VRB03KT 9999 SCT048 21/10 Q1014
  • 031250Z 30006KT 270V050 9999 SCT050 21/09 Q1014
  • 031220Z 26005KT 180V330 9999 FEW052 21/11 Q1015
  • 031150Z VRB04KT CAVOK 21/10 Q1015
  • 031120Z 27004KT 210V330 CAVOK 21/12 Q1015

TAF TAF EDMO
Valid from the 03 at 12:00 until the 03 at 21:00 UTC


031100Z 0312/0321 28005KT 9999 FEW040
BECMG 0312/0314 22006KT
PROB30
TEMPO 0313/0315 25015KT SHRA BKN030TCU
PROB30
TEMPO 0315/0318 25015G25KT TSRA BKN030CB



MET'MAP, your aeronautical weather chart ! - Copyright ORBIFLY December 2007 - Disclaimer

ORBIFLY MET'MAP TEAM :

Programming & Development : Alexandra Zaïnal
Concept & original design : Baudouin d'Aumeries
Assistance for programming : Marc-Olivier Méhu
Technical & hardware support : Manuel Goepfert

Contact : metmap@orbifly.com




SOURCES & CREDITS :

   NOAA